Terminal Aerodrome Forecast
Issued by NWS

Home | Current Version | Previous Version | Text Only | Print | Product List | Glossary On
Versions: 1 2 3 4 5 6 7 8 9 10 11 12 13 14 15 16 17 18 19
000
FTUS46 KMTR 241900 AAA
TAFSNS
TAF AMD
KSNS 241959Z 2420/2518 29012KT P6SM OVC018
      TEMPO 2420/2424 SCT019
     FM250300 26007KT P6SM OVC012
     FM251745 28009KT P6SM BKN015=

USA.gov is the U.S. government's official web portal to all federal, state and local government web resources and services.